Time;durP1;ratioP1;P1;durP2;ratioP2;P2;SDS_P1;SDS_P2;PMS_P1;PMS_P2;Temp;Humidity;BMP_temperature;BMP_pressure;BME280_temperature;BME280_humidity;BME280_pressure;Samples;Min_cycle;Max_cycle;Signal;HPM_P1;HPM_P2
2023/03/26 00:01:35;;;;;;;0.97;0.90;;;10.10;99.90;;;10.20;nan;100117.91;4987852;28;21290;-68
2023/03/26 00:04:05;;;;;;;1.30;0.50;;;10.00;99.90;;;10.18;nan;100118.00;4993623;28;20631;-67
2023/03/26 00:06:37;;;;;;;0.43;0.43;;;10.00;99.90;;;10.18;nan;100114.59;4975951;28;20670;-66
2023/03/26 00:09:09;;;;;;;0.50;0.50;;;10.00;99.90;;;10.16;nan;100109.47;4985415;28;20648;-67
2023/03/26 00:11:36;;;;;;;0.50;0.50;;;10.00;99.90;;;10.11;nan;100114.25;4991779;28;20674;-68
2023/03/26 00:14:04;;;;;;;1.77;0.50;;;10.00;99.90;;;9.99;nan;100102.94;4978003;28;20639;-66
2023/03/26 00:16:32;;;;;;;4.20;0.60;;;9.90;99.90;;;9.95;nan;100111.13;4972596;28;20629;-66
2023/03/26 00:19:00;;;;;;;0.40;0.40;;;9.80;99.90;;;9.92;nan;100112.19;4978819;28;21225;-67
2023/03/26 00:21:29;;;;;;;1.23;0.77;;;9.80;99.90;;;9.91;nan;100112.31;4990600;28;20707;-67
2023/03/26 00:24:03;;;;;;;0.70;0.70;;;9.80;99.90;;;9.81;nan;100116.56;4991700;28;20648;-67
2023/03/26 00:26:32;;;;;;;2.23;0.40;;;9.70;99.90;;;9.77;nan;100108.19;4991256;28;20626;-68
2023/03/26 00:29:02;;;;;;;0.30;0.30;;;9.60;99.90;;;9.72;nan;100107.69;4991795;28;21194;-66
2023/03/26 00:31:29;;;;;;;2.60;0.87;;;9.60;99.90;;;9.69;nan;100105.31;4991425;28;20791;-66
2023/03/26 00:33:56;;;;;;;0.33;0.33;;;9.50;99.90;;;9.75;nan;100104.03;4972763;28;20648;-68
2023/03/26 00:36:25;;;;;;;1.13;0.43;;;9.60;99.90;;;9.77;nan;100115.16;4981231;28;20637;-66
2023/03/26 00:38:53;;;;;;;0.30;0.30;;;9.60;99.90;;;9.75;nan;100107.44;4987056;28;20639;-68
2023/03/26 00:41:24;;;;;;;0.20;0.20;;;9.60;99.90;;;9.75;nan;100104.03;5006237;28;20721;-66
2023/03/26 00:43:55;;;;;;;0.63;0.63;;;9.60;99.90;;;9.72;nan;100096.44;4984820;28;20979;-66
2023/03/26 00:46:24;;;;;;;0.57;0.57;;;9.60;99.90;;;9.73;nan;100092.91;4990396;28;22451;-67
2023/03/26 00:48:51;;;;;;;0.77;0.60;;;9.60;99.90;;;9.74;nan;100097.97;4982369;28;20701;-67
2023/03/26 00:51:20;;;;;;;0.67;0.40;;;9.60;99.90;;;9.74;nan;100097.13;4988619;28;20678;-68
2023/03/26 00:53:49;;;;;;;0.70;0.57;;;9.60;99.90;;;9.76;nan;100097.84;4984274;28;20634;-67
2023/03/26 00:56:17;;;;;;;4.23;0.80;;;9.60;99.90;;;9.73;nan;100090.28;4985148;28;21207;-67
2023/03/26 00:58:44;;;;;;;0.90;0.70;;;9.60;99.90;;;9.70;nan;100090.50;4974476;28;20646;-67
2023/03/26 01:01:17;;;;;;;2.30;0.53;;;9.50;99.90;;;9.65;nan;100082.22;4973670;28;20666;-66
2023/03/26 01:03:45;;;;;;;3.17;0.73;;;9.50;99.90;;;9.62;nan;100077.25;4991770;28;20642;-67
2023/03/26 01:06:34;;;;;;;0.47;0.47;;;9.50;99.90;;;9.59;nan;100070.50;4990809;28;20697;-70
2023/03/26 01:09:14;;;;;;;0.60;0.60;;;9.50;99.90;;;9.56;nan;100069.91;4988496;28;20643;-67
2023/03/26 01:11:42;;;;;;;0.70;0.50;;;9.40;99.90;;;9.58;nan;100073.22;4981103;28;21248;-67
2023/03/26 01:14:22;;;;;;;0.97;0.40;;;9.40;99.90;;;9.51;nan;100064.22;4995552;28;21523;-65
2023/03/26 01:17:02;;;;;;;0.63;0.57;;;9.40;99.90;;;9.51;nan;100065.06;4985893;28;20638;-64
2023/03/26 01:19:47;;;;;;;1.50;0.60;;;9.40;99.90;;;9.48;nan;100064.44;4976340;28;20629;-67
2023/03/26 01:22:25;;;;;;;0.63;0.63;;;9.30;99.90;;;9.48;nan;100052.25;5003396;23;20701;-65
2023/03/26 01:24:55;;;;;;;2.07;0.57;;;9.30;99.90;;;9.49;nan;100058.28;4930903;29;21021;-64
2023/03/26 01:27:41;;;;;;;0.70;0.30;;;9.30;99.90;;;9.48;nan;100054.84;4932416;29;20628;-64
2023/03/26 01:30:16;;;;;;;4.23;0.40;;;9.30;99.90;;;9.46;nan;100064.56;4962150;28;21232;-65
2023/03/26 01:33:06;;;;;;;0.57;0.47;;;9.30;99.90;;;9.46;nan;100048.09;4932090;29;20656;-65
2023/03/26 01:35:57;;;;;;;0.80;0.80;;;9.30;99.90;;;9.50;nan;100049.56;4925712;29;20637;-64
2023/03/26 01:38:47;;;;;;;1.43;0.50;;;9.30;99.90;;;9.52;nan;100026.81;4919408;29;20645;-64
2023/03/26 01:41:45;;;;;;;0.50;0.50;;;9.40;99.90;;;9.49;nan;100034.88;4931104;29;20628;-64
2023/03/26 01:45:18;;;;;;;0.30;0.30;;;9.40;99.90;;;9.52;nan;100016.41;4931854;29;20700;-65
2023/03/26 01:47:46;;;;;;;0.40;0.40;;;9.40;99.90;;;9.54;nan;100012.72;4910621;29;20769;-62
2023/03/26 01:50:13;;;;;;;0.63;0.63;;;9.40;99.90;;;9.57;nan;100016.84;4941751;28;20627;-66
2023/03/26 01:52:40;;;;;;;3.80;0.40;;;9.40;99.90;;;9.62;nan;100009.53;4931567;29;20660;-65
2023/03/26 01:55:13;;;;;;;1.07;0.60;;;9.50;99.90;;;9.63;nan;100009.41;4915417;29;20626;-65
2023/03/26 01:58:48;;;;;;;0.30;0.30;;;9.50;99.90;;;9.61;nan;99997.44;4928347;29;20649;-64
2023/03/26 02:01:36;;;;;;;0.70;0.70;;;9.50;99.90;;;9.60;nan;99986.22;4911728;29;20646;-66
2023/03/26 02:05:14;;;;;;;0.47;0.47;;;9.50;99.90;;;9.67;nan;99986.56;4935150;29;20645;-65
2023/03/26 02:08:15;;;;;;;1.13;0.50;;;9.60;99.90;;;9.69;nan;99982.06;4893835;29;20658;-65
2023/03/26 02:10:46;;;;;;;1.33;0.70;;;9.50;99.90;;;9.67;nan;99982.16;4946374;29;20625;-65
2023/03/26 02:13:14;;;;;;;1.37;0.70;;;9.60;99.90;;;9.67;nan;99973.53;4941590;29;21254;-64
2023/03/26 02:15:58;;;;;;;1.00;0.70;;;9.60;99.90;;;9.70;nan;99966.31;4965024;28;20645;-64
2023/03/26 02:18:37;;;;;;;0.50;0.50;;;9.60;99.90;;;9.73;nan;99965.25;4934328;29;20636;-65
2023/03/26 02:21:12;;;;;;;1.00;0.53;;;9.60;99.90;;;9.74;nan;99965.13;4932848;29;21017;-65
2023/03/26 02:23:45;;;;;;;0.67;0.67;;;9.60;99.90;;;9.75;nan;99958.13;4933578;29;21088;-65
2023/03/26 02:26:15;;;;;;;0.80;0.80;;;9.60;99.90;;;9.80;nan;99950.75;4935017;29;21249;-65
2023/03/26 02:28:42;;;;;;;0.67;0.67;;;9.70;99.90;;;9.80;nan;99945.56;4934368;29;20724;-65
2023/03/26 02:31:12;;;;;;;0.50;0.50;;;9.70;99.90;;;9.85;nan;99940.81;4935201;29;20661;-64
2023/03/26 02:33:39;;;;;;;0.83;0.80;;;9.80;99.90;;;9.86;nan;99935.47;4934253;29;20633;-65
2023/03/26 02:36:07;;;;;;;0.53;0.53;;;9.80;99.90;;;9.88;nan;99933.56;4935619;29;20671;-66
2023/03/26 02:38:34;;;;;;;1.33;0.60;;;9.80;99.90;;;9.89;nan;99931.81;4934800;29;21025;-65
2023/03/26 02:41:02;;;;;;;0.83;0.83;;;9.80;99.90;;;9.88;nan;99924.94;4932221;29;20697;-66
2023/03/26 02:43:29;;;;;;;0.60;0.50;;;9.80;99.90;;;9.88;nan;99919.75;4918844;29;20656;-67
2023/03/26 02:45:56;;;;;;;1.07;0.50;;;9.80;99.90;;;9.91;nan;99920.31;4936449;29;20623;-65
2023/03/26 02:48:24;;;;;;;0.77;0.77;;;9.80;99.90;;;9.94;nan;99919.25;4948770;29;20637;-65
2023/03/26 02:50:53;;;;;;;1.57;0.73;;;9.80;99.90;;;9.96;nan;99917.34;4935639;29;20710;-64
2023/03/26 02:53:22;;;;;;;0.90;0.57;;;9.80;99.90;;;9.97;nan;99922.41;4932143;29;22854;-64
2023/03/26 02:55:49;;;;;;;3.17;0.60;;;9.90;99.90;;;9.97;nan;99912.00;4934531;29;21213;-66
2023/03/26 02:58:16;;;;;;;4.20;0.47;;;9.90;99.90;;;9.97;nan;99906.78;4933789;29;20609;-62
2023/03/26 03:00:45;;;;;;;0.60;0.60;;;9.90;99.90;;;10.01;nan;99897.75;4935100;29;20621;-65
2023/03/26 03:03:13;;;;;;;0.63;0.60;;;9.90;99.90;;;9.98;nan;99891.97;4933724;29;21094;-63
2023/03/26 03:05:42;;;;;;;0.80;0.80;;;9.90;99.90;;;9.95;nan;99890.44;4934139;29;20636;-66
2023/03/26 03:08:09;;;;;;;1.23;0.57;;;9.90;99.90;;;9.94;nan;99887.97;4932109;29;21226;-63
2023/03/26 03:10:36;;;;;;;0.70;0.70;;;9.90;99.90;;;9.96;nan;99881.69;4930259;29;20636;-65
2023/03/26 03:13:06;;;;;;;0.43;0.43;;;9.90;99.90;;;9.97;nan;99874.69;4932915;29;20676;-66
2023/03/26 03:15:33;;;;;;;0.60;0.50;;;9.90;99.90;;;9.94;nan;99867.97;4933714;29;20629;-65
2023/03/26 03:18:01;;;;;;;0.83;0.63;;;9.80;99.90;;;9.97;nan;99859.03;4933928;29;20648;-65
2023/03/26 03:20:34;;;;;;;0.50;0.50;;;9.90;99.90;;;9.97;nan;99854.66;4932622;29;20711;-66
2023/03/26 03:23:01;;;;;;;0.50;0.50;;;9.90;99.90;;;9.99;nan;99846.72;4934719;29;20742;-65
2023/03/26 03:25:28;;;;;;;0.50;0.50;;;9.90;99.90;;;9.99;nan;99838.91;4933652;29;20637;-64
2023/03/26 03:27:54;;;;;;;0.83;0.80;;;9.90;99.90;;;10.03;nan;99837.69;4934653;29;20617;-65
2023/03/26 03:30:21;;;;;;;1.20;0.83;;;9.90;99.90;;;10.05;nan;99833.22;4934191;29;21203;-65
2023/03/26 03:32:49;;;;;;;0.70;0.70;;;10.00;99.90;;;10.03;nan;99840.28;4934200;29;20711;-65
2023/03/26 03:35:16;;;;;;;2.63;0.73;;;10.00;99.90;;;9.99;nan;99831.91;4934143;29;20630;-64
2023/03/26 03:37:43;;;;;;;1.03;0.90;;;9.90;99.90;;;10.02;nan;99828.22;4934174;29;20629;-65
2023/03/26 03:40:11;;;;;;;1.20;0.60;;;9.90;99.90;;;10.02;nan;99826.47;4934646;29;20641;-68
2023/03/26 03:42:38;;;;;;;2.93;1.30;;;9.90;99.90;;;10.04;nan;99815.91;4935097;29;20756;-66
2023/03/26 03:45:06;;;;;;;0.93;0.80;;;9.90;99.90;;;10.05;nan;99814.97;4934576;29;20687;-66
2023/03/26 03:47:33;;;;;;;0.70;0.43;;;10.00;99.90;;;10.05;nan;99807.16;4934008;29;20633;-68
2023/03/26 03:50:00;;;;;;;1.33;0.60;;;10.00;99.90;;;10.08;nan;99805.09;4934359;29;20633;-66
2023/03/26 03:52:27;;;;;;;1.13;0.80;;;10.00;99.90;;;10.08;nan;99804.25;4933044;29;21113;-67
2023/03/26 03:55:01;;;;;;;1.43;0.70;;;10.00;99.90;;;9.95;nan;99803.63;4933910;29;20644;-66
2023/03/26 03:57:30;;;;;;;1.00;0.67;;;10.00;99.90;;;9.90;nan;99801.38;4934079;29;20629;-64
2023/03/26 03:59:57;;;;;;;0.53;0.53;;;10.00;99.90;;;9.89;nan;99793.72;4934139;29;20648;-66
2023/03/26 04:02:29;;;;;;;0.60;0.60;;;10.00;99.90;;;9.92;nan;99790.88;4934629;29;20644;-65
2023/03/26 04:04:59;;;;;;;1.10;0.90;;;10.00;99.90;;;10.07;nan;99779.19;4934806;29;20625;-66
2023/03/26 04:07:31;;;;;;;1.83;0.80;;;10.00;99.90;;;10.06;nan;99775.72;4933258;29;21213;-66
2023/03/26 04:09:59;;;;;;;0.57;0.57;;;10.00;99.90;;;10.11;nan;99770.19;4963452;28;20621;-66
2023/03/26 04:12:29;;;;;;;0.50;0.50;;;10.00;99.90;;;10.10;nan;99765.88;4933330;28;20676;-66
2023/03/26 04:14:57;;;;;;;2.00;0.70;;;10.00;99.90;;;10.07;nan;99746.09;4933045;29;20637;-65
2023/03/26 04:17:25;;;;;;;0.83;0.83;;;10.00;99.90;;;10.08;nan;99750.38;4932601;29;21314;-66
2023/03/26 04:19:53;;;;;;;1.23;0.90;;;10.00;99.90;;;10.07;nan;99748.69;4932415;29;21053;-65
2023/03/26 04:22:21;;;;;;;1.07;0.87;;;10.00;99.90;;;10.05;nan;99750.63;4933780;29;20960;-65
2023/03/26 04:24:49;;;;;;;0.80;0.53;;;9.90;99.90;;;10.05;nan;99740.19;4930367;29;21009;-65
2023/03/26 04:27:24;;;;;;;1.50;0.67;;;9.90;99.90;;;10.05;nan;99732.38;4932577;29;20640;-67
2023/03/26 04:29:51;;;;;;;0.70;0.70;;;9.90;99.90;;;10.05;nan;99721.94;4931591;29;20637;-64
2023/03/26 04:32:28;;;;;;;1.17;0.60;;;9.90;99.90;;;10.08;nan;99721.69;4933509;29;20747;-66
2023/03/26 04:34:59;;;;;;;0.83;0.50;;;9.90;99.90;;;10.10;nan;99721.56;4934355;29;20620;-63
2023/03/26 04:37:38;;;;;;;1.27;0.60;;;10.00;99.90;;;10.09;nan;99714.72;4933109;29;21005;-67
2023/03/26 04:40:24;;;;;;;2.17;0.63;;;10.00;99.90;;;10.10;nan;99711.13;4943559;29;20681;-66
2023/03/26 04:42:53;;;;;;;0.77;0.67;;;10.00;99.90;;;10.08;nan;99713.03;4932795;29;21041;-66
2023/03/26 04:45:21;;;;;;;0.57;0.57;;;10.00;99.90;;;10.08;nan;99711.28;4933565;29;20681;-68
2023/03/26 04:47:49;;;;;;;0.50;0.50;;;10.00;99.90;;;10.10;nan;99709.41;4932514;29;20640;-66
2023/03/26 04:50:16;;;;;;;0.63;0.63;;;10.00;99.90;;;10.10;nan;99696.38;4932866;29;20620;-66
2023/03/26 04:52:43;;;;;;;2.60;0.60;;;10.00;99.90;;;10.03;nan;99692.59;4932727;29;20731;-65
2023/03/26 04:55:52;;;;;;;1.00;0.90;;;9.90;99.90;;;10.02;nan;99679.69;4963146;28;20692;-65
2023/03/26 04:58:19;;;;;;;0.70;0.70;;;9.90;99.90;;;10.00;nan;99681.59;4931124;29;20685;-63
2023/03/26 05:00:48;;;;;;;1.47;0.43;;;9.90;99.90;;;10.02;nan;99679.69;4932787;29;20645;-64
2023/03/26 05:03:15;;;;;;;3.90;0.87;;;9.90;99.90;;;10.00;nan;99677.22;4932823;29;20657;-66
2023/03/26 05:05:42;;;;;;;0.40;0.40;;;9.90;99.90;;;10.03;nan;99668.28;4932258;29;20716;-66
2023/03/26 05:08:09;;;;;;;3.13;1.00;;;9.90;99.90;;;10.01;nan;99665.81;4931128;29;20627;-65
2023/03/26 05:10:36;;;;;;;0.43;0.40;;;9.90;99.90;;;9.97;nan;99664.44;4932116;29;20641;-67
2023/03/26 05:13:03;;;;;;;0.93;0.63;;;9.90;99.90;;;9.97;nan;99655.78;4931783;29;21254;-65
2023/03/26 05:15:30;;;;;;;1.47;0.87;;;9.90;99.90;;;9.96;nan;99655.00;4933579;29;20688;-67
2023/03/26 05:17:57;;;;;;;0.80;0.60;;;9.90;99.90;;;9.94;nan;99645.66;4932840;29;20660;-64
2023/03/26 05:20:26;;;;;;;0.53;0.53;;;9.80;99.90;;;9.95;nan;99650.72;4933031;29;20732;-64
2023/03/26 05:22:53;;;;;;;0.67;0.67;;;9.80;99.90;;;9.93;nan;99641.38;4932323;29;20667;-66
2023/03/26 05:25:20;;;;;;;1.30;0.83;;;9.80;99.90;;;10.00;nan;99647.72;4931525;29;20637;-66
2023/03/26 05:27:47;;;;;;;1.50;0.60;;;9.90;99.90;;;9.95;nan;99636.84;4931675;29;21225;-66
2023/03/26 05:30:18;;;;;;;0.43;0.43;;;9.80;99.90;;;9.91;nan;99635.47;4933099;29;20640;-65
2023/03/26 05:32:50;;;;;;;1.50;0.70;;;9.80;99.90;;;9.88;nan;99635.75;4936067;29;20739;-67
2023/03/26 05:35:18;;;;;;;2.40;0.60;;;9.70;99.90;;;9.85;nan;99633.38;4935521;29;21214;-63
2023/03/26 05:37:46;;;;;;;1.90;0.60;;;9.70;99.90;;;9.75;nan;99633.31;4936651;29;20621;-66
2023/03/26 05:40:15;;;;;;;0.90;0.77;;;9.70;99.90;;;9.73;nan;99622.22;4934826;29;20683;-67
2023/03/26 05:42:43;;;;;;;0.63;0.63;;;9.60;99.90;;;9.72;nan;99619.75;4935100;29;20661;-64
2023/03/26 05:45:13;;;;;;;1.63;1.00;;;9.60;99.90;;;9.70;nan;99613.84;4935835;29;21118;-66
2023/03/26 05:47:40;;;;;;;4.90;0.90;;;9.60;99.90;;;9.67;nan;99607.09;4957749;28;21235;-65
2023/03/26 05:50:08;;;;;;;0.70;0.70;;;9.50;99.90;;;9.59;nan;99601.72;4917472;29;20668;-64
2023/03/26 05:52:35;;;;;;;0.60;0.60;;;9.50;99.90;;;9.57;nan;99594.97;4930338;29;20681;-65
2023/03/26 05:55:03;;;;;;;0.30;0.30;;;9.40;99.90;;;9.58;nan;99588.84;4927659;29;20633;-65
2023/03/26 05:57:31;;;;;;;2.40;0.50;;;9.40;99.90;;;9.55;nan;99587.31;4935381;29;20629;-65
2023/03/26 05:59:58;;;;;;;0.43;0.43;;;9.40;99.90;;;9.53;nan;99577.97;4935719;29;20632;-67
2023/03/26 06:02:25;;;;;;;2.10;0.90;;;9.40;99.90;;;9.52;nan;99581.53;4936553;29;20664;-65
2023/03/26 06:04:52;;;;;;;0.90;0.90;;;9.40;99.90;;;9.49;nan;99573.97;4935671;29;20631;-67
2023/03/26 06:07:19;;;;;;;0.50;0.50;;;9.40;99.90;;;9.49;nan;99573.97;4936368;29;20636;-66
2023/03/26 06:09:46;;;;;;;6.43;1.00;;;9.40;99.90;;;9.49;nan;99574.81;4929980;29;20642;-67
2023/03/26 06:12:14;;;;;;;0.50;0.50;;;9.40;99.90;;;9.49;nan;99566.16;4935716;29;20668;-65
2023/03/26 06:14:44;;;;;;;0.60;0.60;;;9.40;99.90;;;9.52;nan;99571.94;4935207;29;20643;-66
2023/03/26 06:17:12;;;;;;;0.70;0.70;;;9.40;99.90;;;9.50;nan;99557.41;4936407;29;20621;-66
2023/03/26 06:19:39;;;;;;;0.77;0.77;;;9.40;99.90;;;9.48;nan;99548.88;4934792;29;21213;-65
2023/03/26 06:22:06;;;;;;;2.67;0.70;;;9.30;99.90;;;9.47;nan;99540.28;4935317;29;20661;-66
2023/03/26 06:24:33;;;;;;;1.10;0.83;;;9.30;99.90;;;9.47;nan;99544.66;4936083;29;20627;-67
2023/03/26 06:27:00;;;;;;;1.07;0.80;;;9.30;99.90;;;9.45;nan;99539.56;4936635;29;20628;-65
2023/03/26 06:29:27;;;;;;;1.17;0.87;;;9.30;99.90;;;9.51;nan;99546.03;4936321;29;20629;-66
2023/03/26 06:31:54;;;;;;;2.60;1.00;;;9.40;99.90;;;9.57;nan;99532.50;4933186;29;21482;-66
2023/03/26 06:34:25;;;;;;;0.93;0.80;;;9.40;99.90;;;9.58;nan;99531.56;4927002;29;20645;-65
2023/03/26 06:36:52;;;;;;;0.87;0.87;;;9.50;99.90;;;9.61;nan;99526.91;4933426;29;20687;-65
2023/03/26 06:39:19;;;;;;;0.80;0.80;;;9.50;99.90;;;9.66;nan;99521.28;4931135;29;20633;-66
2023/03/26 06:41:46;;;;;;;0.70;0.70;;;9.50;99.90;;;9.63;nan;99522.38;4925468;29;21418;-66
2023/03/26 06:44:13;;;;;;;2.40;0.80;;;9.50;99.90;;;9.60;nan;99516.63;4936106;29;20620;-65
2023/03/26 06:46:40;;;;;;;0.70;0.70;;;9.50;99.90;;;9.58;nan;99510.72;4934961;29;21017;-65
2023/03/26 06:49:07;;;;;;;2.63;1.10;;;9.50;99.90;;;9.60;nan;99514.00;4934596;29;20629;-68
2023/03/26 06:51:34;;;;;;;2.17;1.27;;;9.50;99.90;;;9.61;nan;99513.03;4934420;29;20664;-66
2023/03/26 06:54:01;;;;;;;5.53;1.00;;;9.50;99.90;;;9.65;nan;99512.66;4934678;29;21246;-65
2023/03/26 06:56:28;;;;;;;1.10;0.73;;;9.50;99.90;;;9.66;nan;99514.31;4935330;29;20697;-65
2023/03/26 06:58:55;;;;;;;1.60;1.00;;;9.60;99.90;;;9.70;nan;99499.25;4935273;29;20633;-65
2023/03/26 07:01:22;;;;;;;1.13;1.10;;;9.60;99.90;;;9.74;nan;99508.44;4934530;29;20675;-65
2023/03/26 07:03:49;;;;;;;8.90;1.07;;;9.60;99.90;;;9.73;nan;99501.59;4921708;29;20710;-67
2023/03/26 07:06:16;;;;;;;0.90;0.90;;;9.60;99.90;;;9.72;nan;99494.72;4934155;29;20635;-66
2023/03/26 07:08:43;;;;;;;1.43;0.97;;;9.60;99.90;;;9.71;nan;99503.50;4933491;29;21110;-67
2023/03/26 07:11:10;;;;;;;1.17;1.07;;;9.60;99.90;;;9.74;nan;99492.81;4934670;29;20633;-65
2023/03/26 07:13:38;;;;;;;1.40;1.30;;;9.60;99.90;;;9.78;nan;99491.59;4934385;29;20653;-65
2023/03/26 07:16:06;;;;;;;2.43;1.10;;;9.70;99.90;;;9.77;nan;99484.75;4935007;29;20640;-67
2023/03/26 07:18:34;;;;;;;0.67;0.57;;;9.70;99.90;;;9.75;nan;99484.06;4932844;29;20728;-65
2023/03/26 07:21:02;;;;;;;0.93;0.93;;;9.60;99.90;;;9.71;nan;99483.47;4934137;29;20684;-66
2023/03/26 07:23:29;;;;;;;5.90;0.80;;;9.60;99.90;;;9.69;nan;99476.78;4997476;23;20697;-66
2023/03/26 07:25:56;;;;;;;2.30;1.00;;;9.60;99.90;;;9.65;nan;99477.97;4991690;28;21266;-66
2023/03/26 07:28:46;;;;;;;1.57;1.20;;;9.60;99.90;;;9.63;nan;99472.06;4992823;28;20946;-65
2023/03/26 07:32:12;;;;;;;1.80;1.00;;;9.50;99.90;;;9.64;nan;99463.31;4984777;28;20702;-65
2023/03/26 07:35:11;;;;;;;1.57;1.00;;;9.50;99.90;;;9.61;nan;99461.78;4954358;28;20651;-67
2023/03/26 07:38:02;;;;;;;0.40;0.40;;;9.50;99.90;;;9.67;nan;99457.84;4972290;28;20659;-66
2023/03/26 07:41:12;;;;;;;2.07;0.87;;;9.50;99.90;;;9.67;nan;99456.03;4979743;28;20643;-66
2023/03/26 07:44:10;;;;;;;0.77;0.70;;;9.60;99.90;;;9.68;nan;99454.28;4994340;28;20704;-66
2023/03/26 07:46:38;;;;;;;0.80;0.80;;;9.60;99.90;;;9.62;nan;99447.00;4992022;28;21004;-67
2023/03/26 07:49:05;;;;;;;1.00;0.80;;;9.50;99.90;;;9.63;nan;99443.41;5006935;28;20634;-65
2023/03/26 07:51:32;;;;;;;4.83;0.83;;;9.50;99.90;;;9.58;nan;99445.63;4991027;28;21391;-67
2023/03/26 07:54:03;;;;;;;1.67;0.90;;;9.50;99.90;;;9.56;nan;99450.13;4991259;28;21025;-68
2023/03/26 07:56:40;;;;;;;0.53;0.53;;;9.50;99.90;;;9.50;nan;99442.84;4993499;28;20607;-66
2023/03/26 07:59:39;;;;;;;1.37;0.60;;;9.40;99.90;;;9.48;nan;99458.59;4973178;28;20677;-66
2023/03/26 08:02:54;;;;;;;2.23;1.07;;;9.40;99.90;;;9.36;nan;99463.06;4974855;28;20661;-66
2023/03/26 08:05:34;;;;;;;0.40;0.40;;;9.30;99.90;;;9.30;nan;99462.78;4987247;28;20630;-66
2023/03/26 08:08:19;;;;;;;0.90;0.90;;;9.20;99.90;;;9.22;nan;99463.41;5006057;28;20699;-66
2023/03/26 08:11:11;;;;;;;0.90;0.43;;;9.20;99.90;;;9.22;nan;99458.22;4990860;28;20638;-67
2023/03/26 08:13:49;;;;;;;2.73;1.10;;;9.10;99.90;;;9.23;nan;99461.63;4991350;28;21247;-66
2023/03/26 08:16:33;;;;;;;0.90;0.90;;;9.10;99.90;;;9.20;nan;99441.91;4991802;28;21188;-65
2023/03/26 08:19:26;;;;;;;0.67;0.60;;;9.10;99.90;;;9.12;nan;99454.75;5006762;28;20695;-66
2023/03/26 08:22:06;;;;;;;1.10;0.97;;;9.00;99.90;;;9.11;nan;99450.50;4992334;28;20665;-65
2023/03/26 08:25:09;;;;;;;2.60;0.70;;;9.00;99.90;;;9.15;nan;99446.69;4991638;28;20650;-67
2023/03/26 08:27:40;;;;;;;0.73;0.73;;;9.00;99.90;;;9.20;nan;99441.91;4960761;28;21021;-67
2023/03/26 08:30:17;;;;;;;2.83;1.07;;;9.10;99.90;;;9.21;nan;99443.56;5001951;28;21161;-67
2023/03/26 08:32:55;;;;;;;0.93;0.70;;;9.10;99.90;;;9.24;nan;99432.88;4996394;28;20674;-66
2023/03/26 08:35:25;;;;;;;4.30;1.13;;;9.10;99.90;;;9.31;nan;99428.81;4990721;28;20630;-67
2023/03/26 08:37:52;;;;;;;2.40;0.70;;;9.20;99.90;;;9.32;nan;99414.00;4989508;28;20630;-66
2023/03/26 08:40:55;;;;;;;0.90;0.53;;;9.20;99.90;;;9.37;nan;99404.84;4990868;28;20700;-64
2023/03/26 08:43:48;;;;;;;0.67;0.67;;;9.30;99.90;;;9.37;nan;99410.03;4991038;28;20657;-65
2023/03/26 08:46:41;;;;;;;4.33;0.57;;;9.30;99.90;;;9.51;nan;99403.66;4989308;28;20617;-65
2023/03/26 08:49:43;;;;;;;0.50;0.50;;;9.40;99.90;;;9.61;nan;99401.91;5006432;28;20707;-66
2023/03/26 08:52:40;;;;;;;1.60;1.07;;;9.50;99.90;;;9.70;nan;99413.28;4991106;28;20654;-65
2023/03/26 08:55:39;;;;;;;0.80;0.70;;;9.60;99.90;;;9.70;nan;99401.09;4992200;28;20622;-66
2023/03/26 08:58:22;;;;;;;0.67;0.67;;;9.60;99.90;;;9.73;nan;99390.41;4989620;28;20626;-66
2023/03/26 09:01:17;;;;;;;0.63;0.63;;;9.60;99.90;;;9.80;nan;99378.50;4989956;28;20629;-67
2023/03/26 09:04:17;;;;;;;3.07;1.60;;;9.70;99.90;;;9.95;nan;99381.50;4987686;28;20720;-67
2023/03/26 09:07:32;;;;;;;0.50;0.50;;;9.90;99.90;;;10.52;nan;99389.34;4987546;28;20646;-67
2023/03/26 09:10:24;;;;;;;0.90;0.73;;;10.40;99.90;;;10.95;nan;99388.81;4975754;28;20654;-67
2023/03/26 09:13:38;;;;;;;0.40;0.40;;;10.70;99.90;;;10.97;nan;99391.31;4991262;28;21047;-67
2023/03/26 09:16:35;;;;;;;1.50;1.07;;;10.90;99.90;;;11.03;nan;99382.91;4989311;28;20693;-67
2023/03/26 09:19:39;;;;;;;2.27;1.27;;;10.90;99.90;;;11.47;nan;99372.53;4990318;28;20633;-67
2023/03/26 09:22:35;;;;;;;2.43;0.80;;;11.30;99.90;;;12.02;nan;99362.81;4988788;28;20661;-66
2023/03/26 09:25:20;;;;;;;0.30;0.30;;;12.00;99.90;;;11.91;nan;99373.50;4989778;28;20630;-67
2023/03/26 09:28:07;;;;;;;0.40;0.40;;;11.90;99.90;;;11.67;nan;99362.78;4985877;28;20614;-66
2023/03/26 09:30:54;;;;;;;0.90;0.73;;;11.70;99.90;;;11.44;nan;99371.97;4985597;28;20705;-67
2023/03/26 09:33:42;;;;;;;1.00;0.60;;;11.40;99.90;;;11.33;nan;99362.53;4966328;28;20738;-67
2023/03/26 09:36:32;;;;;;;0.50;0.50;;;11.30;99.90;;;11.30;nan;99362.03;4970067;28;20611;-68
2023/03/26 09:39:09;;;;;;;0.40;0.40;;;11.20;99.90;;;11.20;nan;99361.25;4985334;28;20913;-67
2023/03/26 09:42:07;;;;;;;0.60;0.60;;;11.20;99.90;;;11.23;nan;99356.56;4999362;28;21054;-67
2023/03/26 09:45:02;;;;;;;0.37;0.37;;;11.10;99.90;;;11.43;nan;99352.91;4984541;28;20635;-69
2023/03/26 09:47:54;;;;;;;1.90;0.80;;;11.30;99.90;;;11.51;nan;99349.53;4984500;28;20635;-68
2023/03/26 09:51:12;;;;;;;0.87;0.80;;;11.40;99.90;;;11.56;nan;99361.16;4985835;28;20645;-66
2023/03/26 09:54:25;;;;;;;0.40;0.40;;;11.50;99.90;;;11.55;nan;99350.88;4999027;28;20717;-69
2023/03/26 09:56:52;;;;;;;1.07;0.70;;;11.50;99.90;;;11.60;nan;99353.88;4990392;28;20629;-67
2023/03/26 09:59:55;;;;;;;2.50;0.70;;;11.50;99.90;;;11.83;nan;99344.66;4989473;28;21199;-68
2023/03/26 10:03:00;;;;;;;0.43;0.43;;;11.60;99.90;;;12.20;nan;99342.69;4988079;28;21067;-70
2023/03/26 10:05:48;;;;;;;0.50;0.50;;;12.10;99.90;;;12.91;nan;99330.25;4976943;28;20692;-67
2023/03/26 10:08:34;;;;;;;1.07;0.83;;;12.70;99.90;;;13.98;nan;99332.06;4989351;28;21192;-67
2023/03/26 10:11:17;;;;;;;0.80;0.80;;;13.70;99.90;;;15.25;nan;99325.91;4987741;28;20650;-66
2023/03/26 10:14:22;;;;;;;0.90;0.77;;;14.90;99.90;;;18.99;nan;99327.25;5004949;28;20735;-67
2023/03/26 10:17:19;;;;;;;0.70;0.70;;;18.10;99.90;;;20.87;nan;99335.75;4991293;28;20626;-65
2023/03/26 10:20:20;;;;;;;2.50;1.33;;;20.80;99.90;;;22.65;nan;99341.78;4989685;28;20688;-67
2023/03/26 10:23:20;;;;;;;1.23;1.10;;;24.50;99.20;;;24.27;nan;99329.31;4990747;28;20661;-67
2023/03/26 10:26:17;;;;;;;1.93;1.63;;;24.50;99.10;;;24.05;nan;99322.91;4993095;28;20648;-67
2023/03/26 10:29:06;;;;;;;4.60;0.90;;;24.60;96.50;;;22.86;nan;99319.25;4986802;28;21003;-68
2023/03/26 10:32:25;;;;;;;1.23;1.13;;;23.70;96.30;;;19.99;nan;99312.34;4994307;28;20638;-68
2023/03/26 10:35:28;;;;;;;2.77;1.20;;;21.00;99.50;;;18.13;nan;99303.03;4910232;29;20677;-67
2023/03/26 10:38:31;;;;;;;1.80;0.60;;;18.80;95.40;;;16.09;nan;99302.25;4952220;28;21193;-67
2023/03/26 10:41:31;;;;;;;3.63;1.10;;;16.60;99.90;;;14.84;nan;99303.44;4986572;28;20638;-66
2023/03/26 10:44:30;;;;;;;1.10;1.00;;;15.20;99.90;;;13.78;nan;99325.47;4991636;28;20642;-67
2023/03/26 10:47:40;;;;;;;1.40;1.30;;;14.00;99.90;;;13.10;nan;99311.69;4988437;28;21008;-66
2023/03/26 10:50:35;;;;;;;2.00;1.50;;;13.20;99.90;;;12.87;nan;99312.38;4988535;28;20634;-67
2023/03/26 10:53:10;;;;;;;1.60;1.47;;;12.80;99.90;;;12.81;nan;99306.00;4988641;28;20655;-68
2023/03/26 10:55:44;;;;;;;1.03;1.03;;;12.70;99.90;;;12.84;nan;99304.88;5006802;28;21237;-68
2023/03/26 10:58:28;;;;;;;0.63;0.63;;;12.70;99.90;;;12.84;nan;99294.41;4978528;28;21219;-68
2023/03/26 11:01:02;;;;;;;0.80;0.80;;;12.80;99.90;;;12.86;nan;99292.44;4980597;28;20729;-66
2023/03/26 11:03:54;;;;;;;1.10;1.00;;;12.70;99.90;;;13.22;nan;99286.06;4977288;28;20654;-65
2023/03/26 11:06:30;;;;;;;2.83;1.13;;;13.00;99.90;;;13.56;nan;99294.66;4983356;28;20635;-66
2023/03/26 11:09:29;;;;;;;1.57;1.10;;;13.30;99.90;;;13.75;nan;99293.53;4974140;28;20630;-68
2023/03/26 11:12:40;;;;;;;2.13;1.43;;;13.60;99.90;;;13.86;nan;99287.97;4974313;28;20651;-67
2023/03/26 11:15:25;;;;;;;1.50;1.10;;;13.70;99.90;;;13.90;nan;99291.91;4974056;28;21447;-66
2023/03/26 11:18:03;;;;;;;0.93;0.93;;;13.80;99.90;;;14.17;nan;99288.09;4974350;28;20626;-66
2023/03/26 11:20:45;;;;;;;1.83;0.90;;;14.00;99.90;;;14.49;nan;99280.22;4982751;28;20622;-66
2023/03/26 11:24:05;;;;;;;1.60;0.70;;;14.30;99.90;;;14.64;nan;99278.53;4983260;28;20654;-67
2023/03/26 11:26:35;;;;;;;0.50;0.50;;;14.50;99.90;;;14.70;nan;99273.44;4975357;28;20631;-66